Time;durP1;ratioP1;P1;durP2;ratioP2;P2;SDS_P1;SDS_P2;PMS_P1;PMS_P2;Temp;Humidity;BMP_temperature;BMP_pressure;BME280_temperature;BME280_humidity;BME280_pressure;Samples;Min_cycle;Max_cycle;Signal;HPM_P1;HPM_P2
2023/06/26 00:00:41;;;;;;;0.20;0.10;;;21.40;99.90;;;;;;4995107;28;20044;-74
2023/06/26 00:03:07;;;;;;;0.00;0.00;;;21.40;99.90;;;;;;4990727;28;20045;-72
2023/06/26 00:05:32;;;;;;;0.05;0.03;;;21.40;99.90;;;;;;4998643;28;20037;-74
2023/06/26 00:08:00;;;;;;;0.10;0.00;;;21.40;99.90;;;;;;5002646;28;20042;-75
2023/06/26 00:10:27;;;;;;;0.10;0.10;;;21.40;99.90;;;;;;4996420;28;20052;-75
2023/06/26 00:12:53;;;;;;;0.00;0.00;;;21.40;99.90;;;;;;4997045;28;20053;-74
2023/06/26 00:15:19;;;;;;;0.20;0.20;;;21.30;99.90;;;;;;5001402;28;20481;-74
2023/06/26 00:17:45;;;;;;;0.00;0.00;;;21.40;99.90;;;;;;5013750;28;20034;-74
2023/06/26 00:20:11;;;;;;;0.10;0.10;;;21.40;99.90;;;;;;5002387;28;20053;-74
2023/06/26 00:22:40;;;;;;;0.80;0.03;;;21.50;99.90;;;;;;4994046;28;20038;-74
2023/06/26 00:25:06;;;;;;;0.10;0.10;;;21.50;99.90;;;;;;4999043;28;20041;-74
2023/06/26 00:27:32;;;;;;;0.10;0.10;;;21.50;99.90;;;;;;4978537;28;20474;-74
2023/06/26 00:29:58;;;;;;;0.00;0.00;;;21.50;99.90;;;;;;4990869;28;20039;-74
2023/06/26 00:32:23;;;;;;;0.00;0.00;;;21.40;99.90;;;;;;4999264;28;20594;-74
2023/06/26 00:34:49;;;;;;;0.10;0.10;;;21.40;99.90;;;;;;4996655;28;20037;-74
2023/06/26 00:37:15;;;;;;;0.08;0.08;;;21.40;99.90;;;;;;4995908;28;20055;-74
2023/06/26 00:39:41;;;;;;;0.10;0.10;;;21.40;99.90;;;;;;5003344;28;20074;-74
2023/06/26 00:42:07;;;;;;;0.13;0.10;;;21.30;99.90;;;;;;4991976;28;20042;-74
2023/06/26 00:44:32;;;;;;;0.00;0.00;;;21.40;99.90;;;;;;4996193;28;20179;-75
2023/06/26 00:46:59;;;;;;;0.20;0.17;;;21.40;99.90;;;;;;4999077;28;20033;-75
2023/06/26 00:49:26;;;;;;;0.10;0.00;;;21.40;99.90;;;;;;4995277;28;20045;-75
2023/06/26 00:51:51;;;;;;;0.10;0.10;;;21.40;99.90;;;;;;4997995;28;20077;-75
2023/06/26 00:54:20;;;;;;;0.28;0.10;;;21.30;99.90;;;;;;4998173;28;20076;-75
2023/06/26 00:56:48;;;;;;;0.10;0.10;;;21.40;99.90;;;;;;4997867;28;20049;-75
2023/06/26 00:59:14;;;;;;;0.25;0.10;;;21.40;99.90;;;;;;4992039;28;20482;-75
2023/06/26 01:01:40;;;;;;;0.10;0.00;;;21.30;99.90;;;;;;4979788;28;20100;-72
2023/06/26 01:04:06;;;;;;;0.00;0.00;;;21.30;99.90;;;;;;4993536;28;20043;-71
2023/06/26 01:06:35;;;;;;;0.20;0.10;;;21.30;99.90;;;;;;4977873;28;21206;-72
2023/06/26 01:09:02;;;;;;;0.45;0.15;;;21.20;99.90;;;;;;4994353;28;20048;-72
2023/06/26 01:11:28;;;;;;;0.00;0.00;;;21.20;99.90;;;;;;5000587;28;20045;-72
2023/06/26 01:13:55;;;;;;;0.05;0.00;;;21.20;99.90;;;;;;4996011;28;20121;-72
2023/06/26 01:16:23;;;;;;;0.35;0.22;;;21.20;99.90;;;;;;4993114;28;20077;-72
2023/06/26 01:18:49;;;;;;;0.05;0.05;;;21.10;99.90;;;;;;4989672;28;20041;-71
2023/06/26 01:21:17;;;;;;;0.45;0.28;;;21.10;99.90;;;;;;4979748;28;20538;-73
2023/06/26 01:24:10;;;;;;;0.35;0.00;;;21.10;99.90;;;;;;4992717;28;20096;-72
2023/06/26 01:26:38;;;;;;;0.17;0.10;;;21.10;99.90;;;;;;4988301;28;20061;-72
2023/06/26 01:29:07;;;;;;;0.20;0.10;;;21.00;99.90;;;;;;4994128;28;20045;-72
2023/06/26 01:31:34;;;;;;;0.35;0.10;;;21.00;99.90;;;;;;4993420;28;20049;-72
2023/06/26 01:34:01;;;;;;;0.10;0.10;;;21.00;99.90;;;;;;4977895;28;20038;-71
2023/06/26 01:36:27;;;;;;;0.47;0.10;;;20.90;99.90;;;;;;4989648;28;20490;-72
2023/06/26 01:38:53;;;;;;;0.10;0.00;;;20.90;99.90;;;;;;4988447;28;20045;-72
2023/06/26 01:41:19;;;;;;;0.00;0.00;;;20.90;99.90;;;;;;4995342;28;20351;-72
2023/06/26 01:44:23;;;;;;;0.00;0.00;;;20.80;99.90;;;;;;4994335;28;20132;-71
2023/06/26 01:46:59;;;;;;;0.40;0.10;;;20.80;99.90;;;;;;4985804;28;20085;-72
2023/06/26 01:49:37;;;;;;;0.10;0.00;;;20.80;99.90;;;;;;5006921;28;20034;-71
2023/06/26 01:52:21;;;;;;;0.00;0.00;;;20.80;99.90;;;;;;4999491;28;20409;-72
2023/06/26 01:55:04;;;;;;;0.10;0.10;;;20.80;99.90;;;;;;4995309;28;20435;-72
2023/06/26 01:57:31;;;;;;;0.28;0.17;;;20.80;99.90;;;;;;4993427;28;20514;-72
2023/06/26 01:59:59;;;;;;;0.17;0.17;;;20.70;99.90;;;;;;5000860;28;20514;-73
2023/06/26 02:02:25;;;;;;;0.00;0.00;;;20.80;99.90;;;;;;4996363;28;20038;-72
2023/06/26 02:04:51;;;;;;;0.47;0.17;;;20.80;99.90;;;;;;4991684;28;20113;-71
2023/06/26 02:07:17;;;;;;;0.10;0.10;;;20.80;99.90;;;;;;5000341;28;20573;-71
2023/06/26 02:09:43;;;;;;;0.00;0.00;;;20.70;99.90;;;;;;4987497;28;20121;-72
2023/06/26 02:12:09;;;;;;;0.20;0.10;;;20.70;99.90;;;;;;4992059;28;20070;-72
2023/06/26 02:14:35;;;;;;;0.43;0.25;;;20.70;99.90;;;;;;4975926;28;20552;-72
2023/06/26 02:17:01;;;;;;;0.00;0.00;;;20.70;99.90;;;;;;4996971;28;20034;-72
2023/06/26 02:19:27;;;;;;;0.10;0.00;;;20.60;99.90;;;;;;4998668;28;20077;-72
2023/06/26 02:21:53;;;;;;;0.65;0.10;;;20.70;99.90;;;;;;4997630;28;20051;-72
2023/06/26 02:24:19;;;;;;;0.00;0.00;;;20.60;99.90;;;;;;4988272;28;20043;-72
2023/06/26 02:26:45;;;;;;;0.00;0.00;;;20.60;99.90;;;;;;4993681;28;20054;-72
2023/06/26 02:29:12;;;;;;;0.22;0.10;;;20.60;99.90;;;;;;4982992;28;20429;-72
2023/06/26 02:31:37;;;;;;;0.60;0.28;;;20.50;99.90;;;;;;4996164;28;20031;-72
2023/06/26 02:34:04;;;;;;;0.20;0.05;;;20.50;99.90;;;;;;4991718;28;20042;-72
2023/06/26 02:36:30;;;;;;;0.40;0.10;;;20.50;99.90;;;;;;5003686;28;20449;-72
2023/06/26 02:38:56;;;;;;;0.22;0.08;;;20.50;99.90;;;;;;4998966;28;20470;-72
2023/06/26 02:41:21;;;;;;;0.30;0.10;;;20.50;99.90;;;;;;4992083;28;20057;-72
2023/06/26 02:43:47;;;;;;;0.30;0.13;;;20.40;99.90;;;;;;5003911;28;20128;-72
2023/06/26 02:46:13;;;;;;;0.00;0.00;;;20.40;99.90;;;;;;4995311;28;20105;-72
2023/06/26 02:48:38;;;;;;;0.30;0.20;;;20.40;99.90;;;;;;4979386;28;20121;-72
2023/06/26 02:51:04;;;;;;;0.25;0.10;;;20.40;99.90;;;;;;5000272;28;20042;-72
2023/06/26 02:53:31;;;;;;;0.43;0.10;;;20.40;99.90;;;;;;4991324;28;20042;-72
2023/06/26 02:55:56;;;;;;;0.63;0.20;;;20.30;99.90;;;;;;4995160;28;20038;-72
2023/06/26 02:58:22;;;;;;;0.30;0.10;;;20.30;99.90;;;;;;4995467;28;20138;-72
2023/06/26 03:00:48;;;;;;;0.57;0.30;;;20.30;99.90;;;;;;4998813;28;20038;-72
2023/06/26 03:03:14;;;;;;;0.10;0.08;;;20.30;99.90;;;;;;4989912;28;20096;-72
2023/06/26 03:05:39;;;;;;;0.00;0.00;;;20.30;99.90;;;;;;4994093;28;20085;-72
2023/06/26 03:08:05;;;;;;;0.00;0.00;;;20.30;99.90;;;;;;4995649;28;20168;-72
2023/06/26 03:10:31;;;;;;;0.60;0.20;;;20.20;99.90;;;;;;4992522;28;20038;-72
2023/06/26 03:12:57;;;;;;;0.20;0.13;;;20.20;99.90;;;;;;5001523;28;20846;-72
2023/06/26 03:15:22;;;;;;;0.30;0.13;;;20.20;99.90;;;;;;4998956;28;20053;-72
2023/06/26 03:17:48;;;;;;;0.22;0.10;;;20.20;99.90;;;;;;4984936;28;20486;-72
2023/06/26 03:20:15;;;;;;;0.00;0.00;;;20.10;99.90;;;;;;4993336;28;20042;-72
2023/06/26 03:22:41;;;;;;;0.10;0.10;;;20.10;99.90;;;;;;4995288;28;20402;-72
2023/06/26 03:25:07;;;;;;;0.10;0.10;;;20.10;99.90;;;;;;4995161;28;20053;-72
2023/06/26 03:27:33;;;;;;;0.00;0.00;;;20.10;99.90;;;;;;5000601;28;20128;-72
2023/06/26 03:29:59;;;;;;;0.30;0.22;;;20.20;99.90;;;;;;4964856;28;20122;-73
2023/06/26 03:32:24;;;;;;;0.57;0.28;;;20.20;99.90;;;;;;4989015;28;20030;-72
2023/06/26 03:34:50;;;;;;;0.10;0.10;;;20.20;99.90;;;;;;4993560;28;20038;-72
2023/06/26 03:37:16;;;;;;;0.10;0.10;;;20.30;99.90;;;;;;4992848;28;20034;-73
2023/06/26 03:39:41;;;;;;;0.03;0.03;;;20.20;99.90;;;;;;4996125;28;20038;-72
2023/06/26 03:42:07;;;;;;;0.30;0.25;;;20.30;99.90;;;;;;4990313;28;20046;-72
2023/06/26 03:44:33;;;;;;;0.30;0.20;;;20.30;99.90;;;;;;4999721;28;20038;-72
2023/06/26 03:46:58;;;;;;;0.10;0.08;;;20.30;99.90;;;;;;4998072;28;20038;-72
2023/06/26 03:49:24;;;;;;;0.10;0.10;;;20.40;99.90;;;;;;5001489;28;20067;-71
2023/06/26 03:51:50;;;;;;;0.45;0.22;;;20.40;99.90;;;;;;4992141;28;20047;-73
2023/06/26 03:54:16;;;;;;;0.20;0.00;;;20.50;99.90;;;;;;4992072;28;20069;-72
2023/06/26 03:56:41;;;;;;;0.30;0.17;;;20.50;99.90;;;;;;4996316;28;20058;-72
2023/06/26 03:59:07;;;;;;;0.30;0.30;;;20.60;99.90;;;;;;4989601;28;20042;-72
2023/06/26 04:01:33;;;;;;;0.15;0.10;;;20.60;99.90;;;;;;4991063;28;20103;-72
2023/06/26 04:04:00;;;;;;;0.25;0.10;;;20.60;99.90;;;;;;4994325;28;20038;-72
2023/06/26 04:06:26;;;;;;;0.22;0.15;;;20.70;99.90;;;;;;4997256;28;20141;-72
2023/06/26 04:08:51;;;;;;;0.13;0.00;;;20.70;99.90;;;;;;4993669;28;20133;-72
2023/06/26 04:11:17;;;;;;;0.30;0.20;;;20.80;99.90;;;;;;4990080;28;20046;-72
2023/06/26 04:13:43;;;;;;;0.00;0.00;;;20.80;99.90;;;;;;4980342;28;20524;-72
2023/06/26 04:16:11;;;;;;;0.08;0.00;;;20.90;99.90;;;;;;4993700;28;20135;-72
2023/06/26 04:18:37;;;;;;;0.05;0.00;;;20.90;99.90;;;;;;4992550;28;20042;-72
2023/06/26 04:21:11;;;;;;;0.00;0.00;;;20.90;99.90;;;;;;4998518;28;20056;-73
2023/06/26 04:23:37;;;;;;;0.10;0.00;;;20.90;99.90;;;;;;4995267;28;20037;-72
2023/06/26 04:26:04;;;;;;;0.10;0.00;;;21.00;99.90;;;;;;4999214;28;20072;-73
2023/06/26 04:28:34;;;;;;;0.00;0.00;;;21.00;99.90;;;;;;4988503;28;20038;-72
2023/06/26 04:31:00;;;;;;;0.55;0.10;;;21.00;99.90;;;;;;4998922;28;20040;-72
2023/06/26 04:33:27;;;;;;;0.25;0.15;;;21.00;99.90;;;;;;5000143;28;20050;-72
2023/06/26 04:35:53;;;;;;;0.00;0.00;;;21.10;99.90;;;;;;4993832;28;20049;-72
2023/06/26 04:38:19;;;;;;;0.10;0.00;;;21.10;99.90;;;;;;4993110;28;20042;-72
2023/06/26 04:40:45;;;;;;;0.10;0.10;;;21.20;99.90;;;;;;4993403;28;20045;-72
2023/06/26 04:43:11;;;;;;;0.28;0.10;;;21.20;99.90;;;;;;5002014;28;20405;-72
2023/06/26 04:45:37;;;;;;;0.30;0.30;;;21.20;99.90;;;;;;4996654;28;20042;-72
2023/06/26 04:48:03;;;;;;;1.88;0.25;;;21.30;99.90;;;;;;4999754;28;20042;-72
2023/06/26 04:50:30;;;;;;;0.08;0.08;;;21.40;99.90;;;;;;4995637;28;20133;-72
2023/06/26 04:52:56;;;;;;;0.20;0.13;;;21.40;99.90;;;;;;5000788;28;20529;-72
2023/06/26 04:55:24;;;;;;;0.43;0.22;;;21.50;99.90;;;;;;4998667;28;20156;-72
2023/06/26 04:57:50;;;;;;;2.03;0.08;;;21.40;99.90;;;;;;4994147;28;20042;-72
2023/06/26 05:00:16;;;;;;;0.60;0.17;;;21.50;99.90;;;;;;4996102;28;20643;-71
2023/06/26 05:02:42;;;;;;;0.63;0.22;;;21.50;99.90;;;;;;4997460;28;20053;-71
2023/06/26 05:05:08;;;;;;;0.05;0.05;;;21.50;99.90;;;;;;4996074;28;20041;-70
2023/06/26 05:07:34;;;;;;;0.35;0.35;;;21.50;99.90;;;;;;4993971;28;20045;-71
2023/06/26 05:09:59;;;;;;;0.28;0.10;;;21.40;99.90;;;;;;4996388;28;20041;-71
2023/06/26 05:12:25;;;;;;;0.10;0.10;;;21.30;99.90;;;;;;5001815;28;20037;-72
2023/06/26 05:14:51;;;;;;;0.57;0.30;;;21.30;99.90;;;;;;4980461;28;20164;-71
2023/06/26 05:17:16;;;;;;;1.02;0.30;;;21.30;99.90;;;;;;4991942;28;20045;-72
2023/06/26 05:19:42;;;;;;;0.55;0.15;;;21.20;99.90;;;;;;4998694;28;20455;-71
2023/06/26 05:22:08;;;;;;;0.32;0.20;;;21.20;99.90;;;;;;5001859;28;20039;-71
2023/06/26 05:24:38;;;;;;;0.20;0.17;;;21.20;99.90;;;;;;5004570;28;20394;-71
2023/06/26 05:27:05;;;;;;;0.10;0.10;;;21.10;99.90;;;;;;4991411;28;20380;-71
2023/06/26 05:29:31;;;;;;;0.68;0.35;;;21.10;99.90;;;;;;4997404;28;20048;-71
2023/06/26 05:31:57;;;;;;;0.40;0.30;;;21.10;99.90;;;;;;4999958;28;20037;-71
2023/06/26 05:34:24;;;;;;;0.45;0.32;;;21.00;99.90;;;;;;4994326;28;20077;-72
2023/06/26 05:36:58;;;;;;;0.25;0.25;;;21.00;99.90;;;;;;4996828;28;20128;-71
2023/06/26 05:39:56;;;;;;;1.35;0.63;;;21.00;99.90;;;;;;4999465;28;20057;-72
2023/06/26 05:42:22;;;;;;;0.00;0.00;;;20.80;99.90;;;;;;4982001;28;20060;-72
2023/06/26 05:44:47;;;;;;;0.10;0.08;;;20.80;99.90;;;;;;4989990;28;20050;-71
2023/06/26 05:47:13;;;;;;;0.10;0.10;;;20.80;99.90;;;;;;4987990;28;20390;-71
2023/06/26 05:49:39;;;;;;;0.10;0.10;;;20.70;99.90;;;;;;4997243;28;20044;-71
2023/06/26 05:52:23;;;;;;;0.68;0.40;;;20.80;99.90;;;;;;4997921;28;20479;-71
2023/06/26 05:54:49;;;;;;;0.40;0.30;;;20.80;99.90;;;;;;4983443;28;20046;-71
2023/06/26 05:57:16;;;;;;;0.20;0.10;;;20.80;99.90;;;;;;4992921;28;20045;-72
2023/06/26 05:59:43;;;;;;;0.20;0.20;;;20.80;99.90;;;;;;4995876;28;20041;-71
2023/06/26 06:02:09;;;;;;;0.15;0.15;;;20.90;99.90;;;;;;4988925;28;20037;-71
2023/06/26 06:04:35;;;;;;;0.20;0.13;;;21.00;99.90;;;;;;4989166;28;20410;-72
2023/06/26 06:07:01;;;;;;;0.00;0.00;;;21.10;99.90;;;;;;4996278;28;20048;-71
2023/06/26 06:09:26;;;;;;;0.10;0.10;;;21.00;99.90;;;;;;5000892;28;20038;-72
2023/06/26 06:11:52;;;;;;;0.70;0.32;;;21.10;99.90;;;;;;4991114;28;20084;-70
2023/06/26 06:14:18;;;;;;;0.00;0.00;;;21.10;99.90;;;;;;4990092;28;20038;-71
2023/06/26 06:16:43;;;;;;;0.10;0.10;;;21.10;99.90;;;;;;4999254;28;20037;-70
2023/06/26 06:19:12;;;;;;;0.10;0.10;;;21.10;99.90;;;;;;5002678;28;20053;-71
2023/06/26 06:21:38;;;;;;;0.52;0.30;;;21.10;99.90;;;;;;5001032;28;20034;-71
2023/06/26 06:24:04;;;;;;;0.03;0.00;;;21.10;99.90;;;;;;4991935;28;20069;-71
2023/06/26 06:26:30;;;;;;;0.00;0.00;;;21.10;99.90;;;;;;4996114;28;20064;-71
2023/06/26 06:28:56;;;;;;;0.52;0.20;;;21.20;99.90;;;;;;4997623;28;20045;-71
2023/06/26 06:31:21;;;;;;;0.20;0.10;;;21.20;99.90;;;;;;4991859;28;20037;-71
2023/06/26 06:33:47;;;;;;;0.00;0.00;;;21.30;99.90;;;;;;4997029;28;20081;-71
2023/06/26 06:36:13;;;;;;;0.00;0.00;;;21.30;99.90;;;;;;4994121;28;20473;-71
2023/06/26 06:38:43;;;;;;;0.10;0.00;;;21.40;99.90;;;;;;5000511;28;20041;-71
2023/06/26 06:41:09;;;;;;;0.30;0.25;;;21.50;99.90;;;;;;4978753;28;20434;-71
2023/06/26 06:43:35;;;;;;;0.00;0.00;;;21.60;99.90;;;;;;5000530;28;20041;-71
2023/06/26 06:46:01;;;;;;;0.00;0.00;;;21.70;99.90;;;;;;5003859;28;20060;-71
2023/06/26 06:48:27;;;;;;;0.10;0.10;;;21.70;99.90;;;;;;5004269;28;20033;-70
2023/06/26 06:50:53;;;;;;;0.03;0.00;;;21.80;99.90;;;;;;4989389;28;20192;-70
2023/06/26 06:53:22;;;;;;;0.00;0.00;;;21.80;99.90;;;;;;5000574;28;20120;-70
2023/06/26 06:55:49;;;;;;;0.00;0.00;;;21.90;99.90;;;;;;4996666;28;20054;-70
2023/06/26 06:58:16;;;;;;;0.00;0.00;;;21.90;99.90;;;;;;4984134;28;20041;-70
2023/06/26 07:00:43;;;;;;;0.17;0.10;;;22.00;99.90;;;;;;4993894;28;20077;-69
2023/06/26 07:03:10;;;;;;;0.20;0.10;;;22.00;99.90;;;;;;5000925;28;20110;-70
2023/06/26 07:05:36;;;;;;;0.00;0.00;;;22.00;99.90;;;;;;5001880;28;20037;-70
2023/06/26 07:08:02;;;;;;;0.00;0.00;;;22.00;99.90;;;;;;5003342;28;20076;-70
2023/06/26 07:10:28;;;;;;;0.00;0.00;;;21.80;99.90;;;;;;5002853;28;20421;-70
2023/06/26 07:12:54;;;;;;;0.15;0.10;;;21.80;99.90;;;;;;4998506;28;20117;-70
2023/06/26 07:15:20;;;;;;;0.00;0.00;;;21.90;99.90;;;;;;4998543;28;20042;-69
2023/06/26 07:17:46;;;;;;;0.00;0.00;;;21.90;99.90;;;;;;5001156;28;20183;-69
2023/06/26 07:20:15;;;;;;;0.00;0.00;;;22.00;99.90;;;;;;4992545;28;20149;-69
2023/06/26 07:22:41;;;;;;;0.00;0.00;;;22.10;99.90;;;;;;5001239;28;20046;-69
2023/06/26 07:25:09;;;;;;;0.00;0.00;;;22.20;99.90;;;;;;5020928;28;20080;-69
2023/06/26 07:27:35;;;;;;;0.00;0.00;;;22.30;99.90;;;;;;4999648;28;20062;-69
2023/06/26 07:30:02;;;;;;;0.30;0.17;;;22.50;99.90;;;;;;5003240;28;20506;-69
2023/06/26 07:32:27;;;;;;;0.10;0.10;;;22.60;99.90;;;;;;4997048;28;20046;-70
2023/06/26 07:34:53;;;;;;;0.10;0.10;;;22.60;99.90;;;;;;5002451;28;20131;-70
2023/06/26 07:37:19;;;;;;;0.15;0.08;;;22.60;99.90;;;;;;5009494;28;20084;-70
2023/06/26 07:39:44;;;;;;;0.00;0.00;;;22.70;99.90;;;;;;4991613;28;20042;-70
2023/06/26 07:42:10;;;;;;;0.00;0.00;;;22.80;99.90;;;;;;4998892;28;20084;-70
2023/06/26 07:44:36;;;;;;;0.38;0.20;;;22.90;99.90;;;;;;5001198;28;20050;-70
2023/06/26 07:47:02;;;;;;;0.00;0.00;;;23.00;99.90;;;;;;5001661;28;20040;-69
2023/06/26 07:49:28;;;;;;;0.77;0.50;;;22.90;99.90;;;;;;5010741;28;20045;-69
2023/06/26 07:51:53;;;;;;;0.00;0.00;;;22.90;99.90;;;;;;4999867;28;20052;-69
2023/06/26 07:54:19;;;;;;;0.17;0.17;;;23.00;99.90;;;;;;5001309;28;20038;-69
2023/06/26 07:57:01;;;;;;;0.22;0.10;;;22.90;99.90;;;;;;4995065;28;20190;-69
2023/06/26 07:59:29;;;;;;;0.22;0.22;;;22.90;99.90;;;;;;4964436;28;20050;-69
2023/06/26 08:01:56;;;;;;;0.00;0.00;;;22.90;99.90;;;;;;4999077;28;20051;-69
2023/06/26 08:04:24;;;;;;;0.00;0.00;;;23.00;99.90;;;;;;5001290;28;20085;-69
2023/06/26 08:06:52;;;;;;;0.00;0.00;;;23.10;99.90;;;;;;5010452;28;20073;-70
2023/06/26 08:09:19;;;;;;;0.10;0.00;;;23.20;99.90;;;;;;4995593;28;20125;-69
2023/06/26 08:11:45;;;;;;;0.10;0.00;;;23.30;99.90;;;;;;4981596;28;20049;-69
2023/06/26 08:14:14;;;;;;;0.00;0.00;;;23.50;99.90;;;;;;5001120;28;20041;-69
2023/06/26 08:16:43;;;;;;;0.00;0.00;;;23.80;99.90;;;;;;5011204;28;20037;-68
2023/06/26 08:19:11;;;;;;;0.80;0.25;;;23.90;99.90;;;;;;4995373;28;20507;-69
2023/06/26 08:21:36;;;;;;;0.00;0.00;;;23.90;99.90;;;;;;4998886;28;20037;-69
2023/06/26 08:24:02;;;;;;;0.00;0.00;;;23.80;99.90;;;;;;4999479;28;20099;-69
2023/06/26 08:26:28;;;;;;;0.00;0.00;;;23.80;99.90;;;;;;4991479;28;20124;-69
2023/06/26 08:28:54;;;;;;;0.00;0.00;;;23.70;99.90;;;;;;5003169;28;20443;-68
2023/06/26 08:31:20;;;;;;;0.40;0.10;;;23.60;99.90;;;;;;5000158;28;20121;-69
2023/06/26 08:33:46;;;;;;;0.00;0.00;;;23.60;99.90;;;;;;5000320;28;20117;-69
2023/06/26 08:36:13;;;;;;;0.00;0.00;;;23.60;99.90;;;;;;4988624;28;20066;-69
2023/06/26 08:38:41;;;;;;;0.15;0.10;;;23.70;99.90;;;;;;4996526;28;20050;-69
2023/06/26 08:41:07;;;;;;;0.00;0.00;;;23.70;99.90;;;;;;5015617;28;20215;-69
2023/06/26 08:43:34;;;;;;;0.00;0.00;;;23.50;99.90;;;;;;4995112;28;20042;-69
2023/06/26 08:46:00;;;;;;;0.00;0.00;;;23.40;99.90;;;;;;5022308;28;20045;-69
2023/06/26 08:48:26;;;;;;;0.05;0.00;;;23.20;99.90;;;;;;4986112;28;20073;-70
2023/06/26 08:50:57;;;;;;;0.00;0.00;;;23.20;99.90;;;;;;5000977;28;20117;-69
2023/06/26 08:53:49;;;;;;;0.00;0.00;;;23.20;99.90;;;;;;4994669;28;20105;-68
2023/06/26 08:56:20;;;;;;;0.00;0.00;;;23.10;99.90;;;;;;5000596;28;20058;-69
2023/06/26 08:58:46;;;;;;;0.00;0.00;;;23.40;99.90;;;;;;5021754;28;20061;-69
2023/06/26 09:01:12;;;;;;;0.00;0.00;;;23.70;99.90;;;;;;5017429;28;20478;-69
2023/06/26 09:03:38;;;;;;;0.00;0.00;;;24.00;99.90;;;;;;4995606;28;20057;-69
2023/06/26 09:06:04;;;;;;;0.60;0.30;;;24.10;99.90;;;;;;4997175;28;20033;-69
2023/06/26 09:08:30;;;;;;;0.10;0.10;;;24.00;99.90;;;;;;5001458;28;20088;-68
2023/06/26 09:10:56;;;;;;;0.08;0.00;;;23.70;99.90;;;;;;5003484;28;20505;-68
2023/06/26 09:13:21;;;;;;;0.00;0.00;;;23.40;99.90;;;;;;4994926;28;20096;-69
2023/06/26 09:15:47;;;;;;;0.00;0.00;;;23.50;99.90;;;;;;5010254;28;20041;-69
2023/06/26 09:18:16;;;;;;;0.00;0.00;;;23.70;99.90;;;;;;4999341;28;20100;-69
2023/06/26 09:20:42;;;;;;;0.30;0.30;;;23.70;99.90;;;;;;5003737;28;20049;-69
2023/06/26 09:23:08;;;;;;;0.17;0.10;;;24.10;99.90;;;;;;4991010;28;20056;-69
2023/06/26 09:25:39;;;;;;;0.10;0.03;;;24.30;99.90;;;;;;4994419;28;20076;-70
2023/06/26 09:28:05;;;;;;;0.00;0.00;;;24.40;99.90;;;;;;4999168;28;20368;-68
2023/06/26 09:30:32;;;;;;;0.10;0.03;;;24.50;99.90;;;;;;5023583;28;20038;-69
2023/06/26 09:33:17;;;;;;;0.08;0.00;;;24.40;99.90;;;;;;5018679;28;20045;-69
2023/06/26 09:35:44;;;;;;;0.00;0.00;;;24.60;99.90;;;;;;5009541;28;20112;-69
2023/06/26 09:38:10;;;;;;;0.00;0.00;;;24.80;99.90;;;;;;4982856;28;20099;-69
2023/06/26 09:40:38;;;;;;;0.00;0.00;;;24.90;99.90;;;;;;5003037;28;20117;-69
2023/06/26 09:43:08;;;;;;;0.52;0.10;;;25.10;99.90;;;;;;5010831;28;20049;-69
2023/06/26 09:45:36;;;;;;;0.00;0.00;;;25.30;99.40;;;;;;4995838;28;20390;-69
2023/06/26 09:48:05;;;;;;;0.10;0.10;;;25.50;99.40;;;;;;4999751;28;20046;-69
2023/06/26 09:50:37;;;;;;;0.10;0.10;;;25.50;96.40;;;;;;5004098;28;20504;-69
2023/06/26 09:53:13;;;;;;;0.00;0.00;;;25.40;96.90;;;;;;4995467;28;20068;-70
2023/06/26 09:55:43;;;;;;;0.15;0.08;;;25.30;94.80;;;;;;4994864;28;20038;-70
2023/06/26 09:58:15;;;;;;;0.00;0.00;;;25.20;94.30;;;;;;4979986;28;20119;-69
2023/06/26 10:00:44;;;;;;;0.10;0.10;;;24.80;95.10;;;;;;4989770;28;20049;-69
2023/06/26 10:03:12;;;;;;;0.40;0.17;;;24.70;95.30;;;;;;4991425;28;20041;-69
2023/06/26 10:05:40;;;;;;;0.03;0.00;;;24.90;96.20;;;;;;4995836;28;20662;-70
2023/06/26 10:08:06;;;;;;;0.05;0.00;;;25.00;93.60;;;;;;5016161;28;20053;-70
2023/06/26 10:10:36;;;;;;;0.00;0.00;;;24.80;93.60;;;;;;4975377;28;20084;-70
2023/06/26 10:13:09;;;;;;;0.00;0.00;;;24.70;94.80;;;;;;5003226;28;20042;-70
2023/06/26 10:15:36;;;;;;;0.00;0.00;;;24.80;94.90;;;;;;4998637;28;20040;-70
2023/06/26 10:18:02;;;;;;;0.20;0.20;;;25.20;92.80;;;;;;5000843;28;20038;-69
2023/06/26 10:20:29;;;;;;;0.10;0.10;;;25.50;92.80;;;;;;4997663;28;20466;-69
2023/06/26 10:22:59;;;;;;;0.55;0.30;;;25.90;92.20;;;;;;4999884;28;20049;-69
2023/06/26 10:25:26;;;;;;;0.43;0.22;;;26.20;89.90;;;;;;5005497;28;20041;-70
2023/06/26 10:27:55;;;;;;;0.00;0.00;;;25.90;86.20;;;;;;4988049;28;20382;-69
2023/06/26 10:30:28;;;;;;;0.00;0.00;;;25.20;90.20;;;;;;4994241;28;20403;-69
2023/06/26 10:32:55;;;;;;;0.10;0.10;;;24.60;92.60;;;;;;4995639;28;20120;-70
2023/06/26 10:35:21;;;;;;;0.00;0.00;;;24.60;93.00;;;;;;5001514;28;20477;-69
2023/06/26 10:37:51;;;;;;;0.10;0.00;;;24.80;94.10;;;;;;4997911;28;20049;-69
2023/06/26 10:40:26;;;;;;;0.10;0.00;;;25.20;94.50;;;;;;5030006;28;20045;-69
2023/06/26 10:43:07;;;;;;;0.00;0.00;;;25.50;93.70;;;;;;4987334;28;20049;-69
2023/06/26 10:45:35;;;;;;;0.00;0.00;;;25.60;92.40;;;;;;5013799;28;20053;-69
2023/06/26 10:48:00;;;;;;;0.10;0.10;;;25.40;88.70;;;;;;4992612;28;20046;-69
2023/06/26 10:50:30;;;;;;;0.00;0.00;;;25.20;90.50;;;;;;4995710;28;20034;-68
2023/06/26 10:53:11;;;;;;;0.10;0.10;;;25.40;90.10;;;;;;5002433;28;20437;-69
2023/06/26 10:55:40;;;;;;;0.20;0.10;;;25.70;90.50;;;;;;4996296;28;20076;-68
2023/06/26 10:58:28;;;;;;;0.10;0.00;;;26.00;89.50;;;;;;5017882;28;20053;-68
2023/06/26 11:01:14;;;;;;;0.15;0.10;;;26.20;88.90;;;;;;4994369;28;20038;-71
2023/06/26 11:03:58;;;;;;;0.05;0.00;;;26.40;83.80;;;;;;4998446;28;20460;-70
2023/06/26 11:06:24;;;;;;;;;;;26.10;79.70;;;;;;5006594;28;20037;-69
2023/06/26 11:08:53;;;;;;;0.75;0.15;;;25.50;79.10;;;;;;5020243;28;19924;-69
2023/06/26 11:11:20;;;;;;;0.00;0.00;;;25.30;84.50;;;;;;5012071;28;20079;-70
2023/06/26 11:13:47;;;;;;;0.00;0.00;;;25.30;81.40;;;;;;5001240;28;20033;-69
2023/06/26 11:16:14;;;;;;;0.00;0.00;;;25.20;81.60;;;;;;5016118;28;20077;-69
2023/06/26 11:18:41;;;;;;;0.00;0.00;;;25.00;84.70;;;;;;5011724;28;20391;-70
2023/06/26 11:21:11;;;;;;;0.00;0.00;;;25.20;90.00;;;;;;4999554;28;20401;-69
2023/06/26 11:23:37;;;;;;;0.10;0.00;;;25.70;88.40;;;;;;5000507;28;20514;-69
2023/06/26 11:26:23;;;;;;;0.00;0.00;;;26.00;85.80;;;;;;5026648;28;20045;-69
2023/06/26 11:28:55;;;;;;;0.17;0.10;;;26.10;84.50;;;;;;5023126;28;20053;-69
2023/06/26 11:31:25;;;;;;;0.65;0.20;;;25.90;81.60;;;;;;5018236;28;20103;-68
2023/06/26 11:33:52;;;;;;;0.28;0.10;;;26.00;84.40;;;;;;4995798;28;20053;-69
2023/06/26 11:36:18;;;;;;;0.03;0.00;;;26.40;84.80;;;;;;5015277;28;20037;-69
2023/06/26 11:38:43;;;;;;;0.00;0.00;;;26.40;79.50;;;;;;5001102;28;20051;-69
2023/06/26 11:41:09;;;;;;;1.48;0.22;;;26.00;76.80;;;;;;5019568;28;20521;-69
2023/06/26 11:43:35;;;;;;;0.10;0.10;;;25.90;81.40;;;;;;5020845;28;20405;-68
2023/06/26 11:46:01;;;;;;;0.00;0.00;;;25.90;80.20;;;;;;4997518;28;20136;-68
2023/06/26 11:48:27;;;;;;;0.00;0.00;;;26.10;82.80;;;;;;4994635;28;20034;-69
2023/06/26 11:50:54;;;;;;;0.00;0.00;;;26.40;77.90;;;;;;5001848;28;20049;-69
2023/06/26 11:53:19;;;;;;;0.10;0.10;;;26.60;81.20;;;;;;5001881;28;20041;-69
2023/06/26 11:55:45;;;;;;;0.13;0.10;;;26.70;77.80;;;;;;5018533;28;20104;-68
2023/06/26 11:58:11;;;;;;;0.32;0.10;;;26.70;73.00;;;;;;4995224;28;20836;-69
2023/06/26 12:00:43;;;;;;;0.03;0.00;;;26.60;74.50;;;;;;5019548;28;20080;-68
2023/06/26 12:03:08;;;;;;;0.00;0.00;;;26.40;72.00;;;;;;4999947;28;20054;-69
2023/06/26 12:05:34;;;;;;;0.00;0.00;;;26.20;77.40;;;;;;5008211;28;20104;-69
2023/06/26 12:08:01;;;;;;;0.10;0.10;;;26.00;78.30;;;;;;4993362;28;20046;-68
2023/06/26 12:10:27;;;;;;;0.00;0.00;;;25.80;78.00;;;;;;5000890;28;20095;-68
2023/06/26 12:12:56;;;;;;;0.10;0.00;;;25.70;80.60;;;;;;5016411;28;20125;-68
2023/06/26 12:15:22;;;;;;;0.65;0.10;;;25.80;80.40;;;;;;4989493;28;20046;-68
2023/06/26 12:17:47;;;;;;;0.30;0.30;;;25.30;80.10;;;;;;5017040;28;20426;-68
2023/06/26 12:20:23;;;;;;;0.05;0.00;;;25.00;83.20;;;;;;5020489;28;20072;-68
2023/06/26 12:22:49;;;;;;;0.15;0.13;;;24.80;83.60;;;;;;4992556;28;20137;-67
2023/06/26 12:25:21;;;;;;;0.98;0.30;;;24.60;83.80;;;;;;4989736;28;20129;-67
2023/06/26 12:27:46;;;;;;;0.30;0.22;;;24.50;84.60;;;;;;5014223;28;20057;-69
2023/06/26 12:30:12;;;;;;;0.00;0.00;;;24.80;87.20;;;;;;5018984;28;20038;-68
2023/06/26 12:32:38;;;;;;;0.00;0.00;;;24.90;85.50;;;;;;5019340;28;20030;-68
2023/06/26 12:35:04;;;;;;;0.00;0.00;;;25.00;82.00;;;;;;5010104;28;20037;-68
2023/06/26 12:37:37;;;;;;;0.75;0.10;;;24.80;80.60;;;;;;5000546;28;20045;-69
2023/06/26 12:40:06;;;;;;;0.10;0.03;;;24.80;82.60;;;;;;4990826;28;20115;-68
2023/06/26 12:42:33;;;;;;;0.00;0.00;;;24.80;82.20;;;;;;5007700;28;20044;-68
2023/06/26 12:45:09;;;;;;;0.00;0.00;;;24.90;80.80;;;;;;5006251;28;20045;-69
2023/06/26 12:47:38;;;;;;;0.00;0.00;;;24.80;83.00;;;;;;4991413;28;20342;-68
2023/06/26 12:50:06;;;;;;;0.00;0.00;;;24.90;81.90;;;;;;5010998;28;20081;-68